createdAt,value
2019-05-20T00:00:27.638Z,3.15
2019-05-20T00:02:56.234Z,3.40
2019-05-20T00:05:24.988Z,3.00
2019-05-20T00:07:53.703Z,3.20
2019-05-20T00:10:22.275Z,3.45
2019-05-20T00:12:50.933Z,3.55
2019-05-20T00:15:19.526Z,3.30
2019-05-20T00:17:48.164Z,3.45
2019-05-20T00:20:17.173Z,3.30
2019-05-20T00:22:45.742Z,3.00
2019-05-20T00:25:14.887Z,3.08
2019-05-20T00:27:43.500Z,3.05
2019-05-20T00:30:12.508Z,3.10
2019-05-20T00:32:42.453Z,3.00
2019-05-20T00:35:12.011Z,3.22
2019-05-20T00:37:40.631Z,3.58
2019-05-20T00:40:09.567Z,3.50
2019-05-20T00:42:38.235Z,3.45
2019-05-20T00:45:07.720Z,3.75
2019-05-20T00:47:36.414Z,3.75
2019-05-20T00:50:06.138Z,3.67
2019-05-20T00:52:34.882Z,3.77
2019-05-20T00:55:04.318Z,3.72
2019-05-20T00:57:32.883Z,3.30
2019-05-20T01:00:02.192Z,3.20
2019-05-20T01:02:31.214Z,3.58
2019-05-20T01:04:59.838Z,4.65
2019-05-20T01:07:28.474Z,3.35
2019-05-20T01:09:57.120Z,4.87
2019-05-20T01:12:25.834Z,5.87
2019-05-20T01:14:54.561Z,11.08
2019-05-20T01:17:23.511Z,14.40
2019-05-20T01:19:52.135Z,11.55
2019-05-20T01:22:20.848Z,8.15
2019-05-20T01:24:49.476Z,6.25
2019-05-20T01:27:18.050Z,5.87
2019-05-20T01:29:46.662Z,5.60
2019-05-20T01:32:15.271Z,6.80
2019-05-20T01:34:43.838Z,7.60
2019-05-20T01:37:12.777Z,6.17
2019-05-20T01:39:41.331Z,5.47
2019-05-20T01:42:09.924Z,5.90
2019-05-20T01:44:38.521Z,5.90
2019-05-20T01:47:07.183Z,6.25
2019-05-20T01:49:36.087Z,6.00
2019-05-20T01:52:04.715Z,6.25
2019-05-20T01:54:33.399Z,6.58
2019-05-20T01:57:02.009Z,8.70
2019-05-20T01:59:30.570Z,9.23
2019-05-20T02:01:59.504Z,13.53
2019-05-20T02:04:28.163Z,13.88
2019-05-20T02:06:56.764Z,14.58
2019-05-20T02:09:25.557Z,15.10
2019-05-20T02:11:54.239Z,13.35
2019-05-20T02:14:27.155Z,12.47
2019-05-20T02:16:55.948Z,12.40
2019-05-20T02:19:24.668Z,13.62
2019-05-20T02:21:53.575Z,14.95
2019-05-20T02:24:22.195Z,16.70
2019-05-20T02:26:50.804Z,17.55
2019-05-20T02:29:19.355Z,14.25
2019-05-20T02:31:47.958Z,10.03
2019-05-20T02:34:16.532Z,9.85
2019-05-20T02:36:45.242Z,7.55
2019-05-20T02:39:13.912Z,6.65
2019-05-20T02:41:42.743Z,5.87
2019-05-20T02:44:11.402Z,5.53
2019-05-20T02:46:39.986Z,5.12
2019-05-20T02:49:08.561Z,5.25
2019-05-20T02:51:37.326Z,4.62
2019-05-20T02:54:06.055Z,4.87
2019-05-20T02:56:34.793Z,4.08
2019-05-20T02:59:03.567Z,3.98
2019-05-20T03:01:32.282Z,3.92
2019-05-20T03:04:11.576Z,4.53
2019-05-20T03:06:31.148Z,5.12
2019-05-20T03:08:59.761Z,4.42
2019-05-20T03:11:28.331Z,4.10
2019-05-20T03:13:56.999Z,4.10
2019-05-20T03:16:25.655Z,4.72
2019-05-20T03:18:54.310Z,4.75
2019-05-20T03:21:22.908Z,4.80
2019-05-20T03:23:51.531Z,5.30
2019-05-20T03:26:20.184Z,5.97
2019-05-20T03:28:48.782Z,4.53
2019-05-20T03:31:17.482Z,5.17
2019-05-20T03:33:46.083Z,5.35
2019-05-20T03:36:14.876Z,6.25
2019-05-20T03:38:43.477Z,4.42
2019-05-20T03:41:12.137Z,4.45
2019-05-20T03:43:40.830Z,4.17
2019-05-20T03:46:09.739Z,4.37
2019-05-20T03:48:38.495Z,4.15
2019-05-20T03:51:07.112Z,4.10
2019-05-20T03:53:35.892Z,4.75
2019-05-20T03:56:04.675Z,4.67
2019-05-20T03:58:33.447Z,5.58
2019-05-20T04:01:01.998Z,4.65
2019-05-20T04:03:30.716Z,4.42
2019-05-20T04:05:59.422Z,5.30
2019-05-20T04:08:28.266Z,4.10
2019-05-20T04:10:56.975Z,4.33
2019-05-20T04:13:25.635Z,4.72
2019-05-20T04:15:54.417Z,4.62
2019-05-20T04:18:23.052Z,4.10
2019-05-20T04:20:51.914Z,4.75
2019-05-20T04:23:20.608Z,4.35
2019-05-20T04:25:49.625Z,5.47
2019-05-20T04:28:18.348Z,4.00
2019-05-20T04:30:48.122Z,4.53
2019-05-20T04:33:16.897Z,5.10
2019-05-20T04:35:49.489Z,4.35
2019-05-20T04:38:16.086Z,4.53
2019-05-20T04:40:44.839Z,5.75
2019-05-20T04:43:13.498Z,5.28
2019-05-20T04:45:43.650Z,5.53
2019-05-20T04:48:13.951Z,5.72
2019-05-20T04:50:42.666Z,5.20
2019-05-20T04:53:11.668Z,6.87
2019-05-20T04:55:40.763Z,5.37
2019-05-20T04:58:09.411Z,6.85
2019-05-20T05:00:49.811Z,7.10
2019-05-20T05:03:18.534Z,7.42
2019-05-20T05:05:48.474Z,7.25
2019-05-20T05:08:18.287Z,6.65
2019-05-20T05:10:47.020Z,6.90
2019-05-20T05:13:15.798Z,5.83
2019-05-20T05:15:45.287Z,6.22
2019-05-20T05:18:14.375Z,5.55
2019-05-20T05:20:43.402Z,6.97
2019-05-20T05:23:12.663Z,5.50
2019-05-20T05:25:41.414Z,7.53
2019-05-20T05:28:10.192Z,6.45
2019-05-20T05:30:40.493Z,6.47
2019-05-20T05:33:09.242Z,5.58
2019-05-20T05:35:52.363Z,6.42
2019-05-20T05:38:08.910Z,5.60
2019-05-20T05:40:37.599Z,5.90
2019-05-20T05:43:06.182Z,5.45
2019-05-20T05:45:35.130Z,5.37
2019-05-20T05:48:03.817Z,5.30
2019-05-20T05:50:32.753Z,5.95
2019-05-20T05:53:01.379Z,5.25
2019-05-20T05:55:30.759Z,6.47
2019-05-20T05:57:59.503Z,5.60
2019-05-20T06:00:28.854Z,5.03
2019-05-20T06:02:57.565Z,5.60
2019-05-20T06:05:26.233Z,5.25
2019-05-20T06:07:54.877Z,4.67
2019-05-20T06:10:24.200Z,5.05
2019-05-20T06:12:52.958Z,4.60
2019-05-20T06:15:22.399Z,4.85
2019-05-20T06:17:50.994Z,4.72
2019-05-20T06:20:20.210Z,5.05
2019-05-20T06:22:48.908Z,5.50
2019-05-20T06:25:19.581Z,5.87
2019-05-20T06:27:48.354Z,6.08
2019-05-20T06:30:18.175Z,6.37
2019-05-20T06:32:46.829Z,6.28
2019-05-20T06:35:17.024Z,6.40
2019-05-20T06:37:53.771Z,5.60
2019-05-20T06:40:22.514Z,5.28
2019-05-20T06:42:51.271Z,7.08
2019-05-20T06:45:20.120Z,5.22
2019-05-20T06:47:48.686Z,7.60
2019-05-20T06:50:17.453Z,5.47
2019-05-20T06:52:46.016Z,4.87
2019-05-20T06:55:15.451Z,4.40
2019-05-20T06:57:44.406Z,5.42
2019-05-20T07:00:14.856Z,5.40
2019-05-20T07:02:43.667Z,5.72
2019-05-20T07:05:12.773Z,5.33
2019-05-20T07:07:41.426Z,4.90
2019-05-20T07:10:10.674Z,5.05
2019-05-20T07:12:41.667Z,7.37
2019-05-20T07:15:10.436Z,5.37
2019-05-20T07:17:39.446Z,4.22
2019-05-20T07:20:08.336Z,4.90
2019-05-20T07:22:54.555Z,4.47
2019-05-20T07:25:08.573Z,5.45
2019-05-20T07:27:37.296Z,4.35
2019-05-20T07:30:08.096Z,5.50
2019-05-20T07:32:37.074Z,5.05
2019-05-20T07:35:07.816Z,5.00
2019-05-20T07:37:36.601Z,4.60
2019-05-20T07:40:06.939Z,4.45
2019-05-20T07:42:35.529Z,3.87
2019-05-20T07:45:06.192Z,4.67
2019-05-20T07:47:36.699Z,4.70
2019-05-20T07:50:10.037Z,5.08
2019-05-20T07:52:39.458Z,4.72
2019-05-20T07:55:08.390Z,4.47
2019-05-20T07:57:40.068Z,4.28
2019-05-20T08:00:10.110Z,4.50
2019-05-20T08:02:39.886Z,4.33
2019-05-20T08:05:09.550Z,4.97
2019-05-20T08:07:51.478Z,4.70
2019-05-20T08:10:09.445Z,5.95
2019-05-20T08:12:38.323Z,4.83
2019-05-20T08:15:08.457Z,5.33
2019-05-20T08:17:37.651Z,4.45
2019-05-20T08:20:08.020Z,3.85
2019-05-20T08:22:36.731Z,4.25
2019-05-20T08:25:08.539Z,3.90
2019-05-20T08:27:37.281Z,3.62
2019-05-20T08:30:13.691Z,4.58
2019-05-20T08:32:40.097Z,4.28
2019-05-20T08:35:09.612Z,4.87
2019-05-20T08:37:45.514Z,4.03
2019-05-20T08:40:08.870Z,3.55
2019-05-20T08:42:37.545Z,4.33
2019-05-20T08:45:07.863Z,4.83
2019-05-20T08:47:36.488Z,4.28
2019-05-20T08:50:10.933Z,4.30
2019-05-20T08:52:36.820Z,4.55
2019-05-20T08:55:06.490Z,4.05
2019-05-20T08:57:35.165Z,4.40
2019-05-20T09:00:06.156Z,4.42
2019-05-20T09:02:34.797Z,5.45
2019-05-20T09:05:04.049Z,4.45
2019-05-20T09:07:32.824Z,3.95
2019-05-20T09:10:01.418Z,4.92
2019-05-20T09:12:30.471Z,3.47
2019-05-20T09:14:59.040Z,4.12
2019-05-20T09:17:27.682Z,3.52
2019-05-20T09:19:56.543Z,3.72
2019-05-20T09:22:25.418Z,4.30
2019-05-20T09:24:54.215Z,4.53
2019-05-20T09:27:23.231Z,4.67
2019-05-20T09:29:51.908Z,5.10
2019-05-20T09:32:20.648Z,5.15
2019-05-20T09:34:49.690Z,5.15
2019-05-20T09:37:18.417Z,4.97
2019-05-20T09:39:47.276Z,5.42
2019-05-20T09:42:15.855Z,4.40
2019-05-20T09:44:44.566Z,4.92
2019-05-20T09:47:13.231Z,5.47
2019-05-20T09:49:41.906Z,5.15
2019-05-20T09:52:10.690Z,4.78
2019-05-20T09:54:39.662Z,6.78
2019-05-20T09:57:08.241Z,6.65
2019-05-20T09:59:43.378Z,4.53
2019-05-20T10:02:07.451Z,5.50
2019-05-20T10:04:37.876Z,6.15
2019-05-20T10:07:07.852Z,4.33
2019-05-20T10:09:36.516Z,4.65
2019-05-20T10:12:05.432Z,4.00
2019-05-20T10:14:34.083Z,3.55
2019-05-20T10:17:03.206Z,3.40
2019-05-20T10:19:31.870Z,3.80
2019-05-20T10:22:00.550Z,3.92
2019-05-20T10:24:29.264Z,3.72
2019-05-20T10:26:57.942Z,3.65
2019-05-20T10:29:26.520Z,3.92
2019-05-20T10:31:55.202Z,4.15
2019-05-20T10:34:23.872Z,3.30
2019-05-20T10:36:52.560Z,3.42
2019-05-20T10:39:21.238Z,3.70
2019-05-20T10:41:51.392Z,3.42
2019-05-20T10:44:19.944Z,3.52
2019-05-20T10:46:48.742Z,3.58
2019-05-20T10:49:17.388Z,3.40
2019-05-20T10:51:46.062Z,3.08
2019-05-20T10:54:14.716Z,3.80
2019-05-20T10:56:43.311Z,2.83
2019-05-20T10:59:12.410Z,2.60
2019-05-20T11:01:41.348Z,3.90
2019-05-20T11:04:10.239Z,3.25
2019-05-20T11:06:39.156Z,2.87
2019-05-20T11:09:13.930Z,2.80
2019-05-20T11:11:39.501Z,2.83
2019-05-20T11:14:08.871Z,3.40
2019-05-20T11:16:37.562Z,3.05
2019-05-20T11:19:06.214Z,2.70
2019-05-20T11:21:34.993Z,2.70
2019-05-20T11:24:04.162Z,2.80
2019-05-20T11:26:32.902Z,3.10
2019-05-20T11:29:02.426Z,2.60
2019-05-20T11:31:31.820Z,3.40
2019-05-20T11:34:00.399Z,2.80
2019-05-20T11:36:29.194Z,3.20
2019-05-20T11:38:57.823Z,3.60
2019-05-20T11:41:52.006Z,2.70
2019-05-20T11:43:57.081Z,2.75
2019-05-20T11:46:25.683Z,2.70
2019-05-20T11:48:54.374Z,2.60
2019-05-20T11:51:23.004Z,3.15
2019-05-20T11:53:51.683Z,2.90
2019-05-20T11:56:20.497Z,3.10
2019-05-20T11:58:49.094Z,3.35
2019-05-20T12:01:18.083Z,3.27
2019-05-20T12:03:47.161Z,3.37
2019-05-20T12:06:16.149Z,3.25
2019-05-20T12:08:44.882Z,3.33
2019-05-20T12:11:13.610Z,2.70
2019-05-20T12:13:42.260Z,3.15
2019-05-20T12:16:11.194Z,2.40
2019-05-20T12:18:39.850Z,3.02
2019-05-20T12:21:08.493Z,3.00
2019-05-20T12:23:37.225Z,2.77
2019-05-20T12:26:05.980Z,2.58
2019-05-20T12:28:34.608Z,2.50
2019-05-20T12:31:03.318Z,2.80
2019-05-20T12:33:31.854Z,2.45
2019-05-20T12:36:00.662Z,2.52
2019-05-20T12:38:29.272Z,2.25
2019-05-20T12:40:58.102Z,2.85
2019-05-20T12:43:27.018Z,2.70
2019-05-20T12:45:55.712Z,2.42
2019-05-20T12:48:24.441Z,2.27
2019-05-20T12:50:53.048Z,3.37
2019-05-20T12:53:21.755Z,2.33
2019-05-20T12:55:50.355Z,3.47
2019-05-20T12:58:20.437Z,2.85
2019-05-20T13:00:49.289Z,3.05
2019-05-20T13:03:17.937Z,6.37
2019-05-20T13:05:46.923Z,3.02
2019-05-20T13:08:15.637Z,2.00
2019-05-20T13:10:44.257Z,2.62
2019-05-20T13:13:12.856Z,3.10
2019-05-20T13:15:41.513Z,2.37
2019-05-20T13:18:10.177Z,2.58
2019-05-20T13:20:38.915Z,3.12
2019-05-20T13:23:10.613Z,2.50
2019-05-20T13:25:38.344Z,2.75
2019-05-20T13:28:07.073Z,2.60
2019-05-20T13:30:35.806Z,3.35
2019-05-20T13:33:04.705Z,3.08
2019-05-20T13:35:33.676Z,2.75
2019-05-20T13:38:02.202Z,2.35
2019-05-20T13:40:45.151Z,2.95
2019-05-20T13:43:01.327Z,2.98
2019-05-20T13:45:29.952Z,2.62
2019-05-20T13:47:58.664Z,2.70
2019-05-20T13:50:27.358Z,2.60
2019-05-20T13:52:56.010Z,3.02
2019-05-20T13:55:25.562Z,2.60
2019-05-20T13:57:54.222Z,2.77
2019-05-20T14:00:23.529Z,2.67
2019-05-20T14:02:52.203Z,3.40
2019-05-20T14:05:20.778Z,2.47
2019-05-20T14:07:49.533Z,2.60
2019-05-20T14:10:18.325Z,3.77
2019-05-20T14:12:46.951Z,3.50
2019-05-20T14:15:17.380Z,3.50
2019-05-20T14:17:46.605Z,2.80
2019-05-20T14:20:16.566Z,3.30
2019-05-20T14:22:45.421Z,3.35
2019-05-20T14:25:14.480Z,3.77
2019-05-20T14:27:43.409Z,2.87
2019-05-20T14:30:12.615Z,3.90
2019-05-20T14:32:42.906Z,2.70
2019-05-20T14:35:12.103Z,3.35
2019-05-20T14:37:40.770Z,3.37
2019-05-20T14:40:09.688Z,3.27
2019-05-20T14:42:38.517Z,3.27
2019-05-20T14:45:08.238Z,2.95
2019-05-20T14:47:37.037Z,2.80
2019-05-20T14:50:08.472Z,3.08
2019-05-20T14:52:37.237Z,2.87
2019-05-20T14:55:07.153Z,3.37
2019-05-20T14:57:35.751Z,3.92
2019-05-20T15:00:13.301Z,3.30
2019-05-20T15:02:41.959Z,3.17
2019-05-20T15:05:11.775Z,3.00
2019-05-20T15:07:40.482Z,3.10
2019-05-20T15:10:09.603Z,3.60
2019-05-20T15:12:38.427Z,2.80
2019-05-20T15:15:09.249Z,3.05
2019-05-20T15:17:54.860Z,3.30
2019-05-20T15:20:23.607Z,2.92
2019-05-20T15:22:52.219Z,3.62
2019-05-20T15:25:21.271Z,3.47
2019-05-20T15:27:50.120Z,3.77
2019-05-20T15:30:21.353Z,4.05
2019-05-20T15:32:50.093Z,3.25
2019-05-20T15:35:18.850Z,3.10
2019-05-20T15:37:47.437Z,3.40
2019-05-20T15:40:16.442Z,2.90
2019-05-20T15:42:45.331Z,3.80
2019-05-20T15:45:14.197Z,3.17
2019-05-20T15:47:42.933Z,3.08
2019-05-20T15:50:22.833Z,2.75
2019-05-20T15:52:51.612Z,3.20
2019-05-20T15:55:22.054Z,2.72
2019-05-20T15:57:50.848Z,3.17
2019-05-20T16:00:19.660Z,2.92
2019-05-20T16:02:48.462Z,2.60
2019-05-20T16:05:17.154Z,3.50
2019-05-20T16:07:45.810Z,3.33
2019-05-20T16:10:14.603Z,4.03
2019-05-20T16:12:43.471Z,3.30
2019-05-20T16:15:27.954Z,3.47
2019-05-20T16:17:54.753Z,3.30
2019-05-20T16:20:23.663Z,3.33
2019-05-20T16:22:52.396Z,3.08
2019-05-20T16:25:21.090Z,3.58
2019-05-20T16:27:49.833Z,2.58
2019-05-20T16:30:18.795Z,3.37
2019-05-20T16:32:47.421Z,2.80
2019-05-20T16:35:16.251Z,3.00
2019-05-20T16:37:45.006Z,3.15
2019-05-20T16:40:14.455Z,3.95
2019-05-20T16:42:43.122Z,3.60
2019-05-20T16:45:12.521Z,4.80
2019-05-20T16:47:41.530Z,6.90
2019-05-20T16:50:11.049Z,5.55
2019-05-20T16:52:41.468Z,3.75
2019-05-20T16:55:10.554Z,4.10
2019-05-20T16:57:41.097Z,3.85
2019-05-20T17:00:30.025Z,3.37
2019-05-20T17:02:41.099Z,3.98
2019-05-20T17:05:10.142Z,3.80
2019-05-20T17:07:38.911Z,3.60
2019-05-20T17:10:10.462Z,3.52
2019-05-20T17:12:39.070Z,3.58
2019-05-20T17:15:09.818Z,3.52
2019-05-20T17:17:39.000Z,3.27
2019-05-20T17:20:08.889Z,3.10
2019-05-20T17:22:39.432Z,3.05
2019-05-20T17:25:08.481Z,3.70
2019-05-20T17:27:37.232Z,3.80
2019-05-20T17:30:07.944Z,3.47
2019-05-20T17:32:36.888Z,3.90
2019-05-20T17:35:06.208Z,3.58
2019-05-20T17:37:35.208Z,3.95
2019-05-20T17:40:05.632Z,3.87
2019-05-20T17:42:35.672Z,3.80
2019-05-20T17:45:06.046Z,3.35
2019-05-20T17:47:35.192Z,3.25
2019-05-20T17:50:05.587Z,3.77
2019-05-20T17:52:34.332Z,4.20
2019-05-20T17:55:03.660Z,4.22
2019-05-20T17:57:32.661Z,3.70
2019-05-20T18:00:01.465Z,4.28
2019-05-20T18:02:30.516Z,3.87
2019-05-20T18:04:59.306Z,5.03
2019-05-20T18:07:28.306Z,4.00
2019-05-20T18:09:57.026Z,3.98
2019-05-20T18:12:25.726Z,4.25
2019-05-20T18:14:56.113Z,5.45
2019-05-20T18:17:25.365Z,5.17
2019-05-20T18:19:54.118Z,4.20
2019-05-20T18:22:26.262Z,4.00
2019-05-20T18:24:54.861Z,4.08
2019-05-20T18:27:23.589Z,4.40
2019-05-20T18:29:52.604Z,4.40
2019-05-20T18:32:22.229Z,4.30
2019-05-20T18:34:50.852Z,5.37
2019-05-20T18:37:19.860Z,4.60
2019-05-20T18:39:48.640Z,4.37
2019-05-20T18:42:17.381Z,5.20
2019-05-20T18:44:47.603Z,4.37
2019-05-20T18:47:16.859Z,3.95
2019-05-20T18:49:45.756Z,4.03
2019-05-20T18:52:14.403Z,4.35
2019-05-20T18:54:42.985Z,5.15
2019-05-20T18:57:11.796Z,4.50
2019-05-20T18:59:40.679Z,4.67
2019-05-20T19:02:11.562Z,4.50
2019-05-20T19:04:42.411Z,4.65
2019-05-20T19:07:11.438Z,4.45
2019-05-20T19:09:40.250Z,4.10
2019-05-20T19:12:09.248Z,4.30
2019-05-20T19:14:37.919Z,4.60
2019-05-20T19:17:06.679Z,4.12
2019-05-20T19:19:35.450Z,4.20
2019-05-20T19:22:04.318Z,4.20
2019-05-20T19:24:33.471Z,4.28
2019-05-20T19:27:02.134Z,4.67
2019-05-20T19:29:30.976Z,4.53
2019-05-20T19:32:01.915Z,4.17
2019-05-20T19:34:30.327Z,5.15
2019-05-20T19:36:59.342Z,3.85
2019-05-20T19:39:27.962Z,4.10
2019-05-20T19:41:57.370Z,5.20
2019-05-20T19:44:25.878Z,4.00
2019-05-20T19:46:54.565Z,4.22
2019-05-20T19:49:23.548Z,4.12
2019-05-20T19:51:52.280Z,4.80
2019-05-20T19:54:20.952Z,4.40
2019-05-20T19:56:49.731Z,4.58
2019-05-20T19:59:18.405Z,4.72
2019-05-20T20:01:47.139Z,4.70
2019-05-20T20:04:15.779Z,4.08
2019-05-20T20:06:44.568Z,4.22
2019-05-20T20:09:13.458Z,4.83
2019-05-20T20:11:42.107Z,3.83
2019-05-20T20:14:12.696Z,3.98
2019-05-20T20:16:41.060Z,4.72
2019-05-20T20:19:09.748Z,4.75
2019-05-20T20:21:38.423Z,4.28
2019-05-20T20:24:09.393Z,4.50
2019-05-20T20:26:37.663Z,4.60
2019-05-20T20:29:06.374Z,4.90
2019-05-20T20:31:35.155Z,4.28
2019-05-20T20:34:05.213Z,3.87
2019-05-20T20:36:33.855Z,3.65
2019-05-20T20:39:02.651Z,3.90
2019-05-20T20:41:31.307Z,4.30
2019-05-20T20:44:00.248Z,3.83
2019-05-20T20:46:28.931Z,4.30
2019-05-20T20:48:57.601Z,3.52
2019-05-20T20:51:26.290Z,4.00
2019-05-20T20:53:54.931Z,3.95
2019-05-20T20:56:25.444Z,4.05
2019-05-20T20:58:54.196Z,4.10
2019-05-20T21:01:22.901Z,4.40
2019-05-20T21:03:51.614Z,4.40
2019-05-20T21:06:20.549Z,4.28
2019-05-20T21:08:49.107Z,4.62
2019-05-20T21:11:17.763Z,4.75
2019-05-20T21:13:46.423Z,4.15
2019-05-20T21:16:15.156Z,4.55
2019-05-20T21:18:43.828Z,4.90
2019-05-20T21:21:12.534Z,4.80
2019-05-20T21:23:41.333Z,5.05
2019-05-20T21:26:10.016Z,5.78
2019-05-20T21:28:38.655Z,5.45
2019-05-20T21:31:07.221Z,5.30
2019-05-20T21:33:35.986Z,5.40
2019-05-20T21:36:04.749Z,5.83
2019-05-20T21:38:33.274Z,5.22
2019-05-20T21:41:02.215Z,5.20
2019-05-20T21:43:30.907Z,5.95
2019-05-20T21:45:59.503Z,6.22
2019-05-20T21:48:28.101Z,7.17
2019-05-20T21:50:56.714Z,6.78
2019-05-20T21:53:25.628Z,8.68
2019-05-20T21:55:54.434Z,8.53
2019-05-20T21:58:23.096Z,8.50
2019-05-20T22:00:55.757Z,7.85
2019-05-20T22:03:25.443Z,8.20
2019-05-20T22:05:54.343Z,8.98
2019-05-20T22:08:23.077Z,8.83
2019-05-20T22:10:51.817Z,9.05
2019-05-20T22:13:20.843Z,10.30
2019-05-20T22:15:49.550Z,11.03
2019-05-20T22:18:18.287Z,10.72
2019-05-20T22:20:48.231Z,11.88
2019-05-20T22:23:27.328Z,12.20
2019-05-20T22:25:55.929Z,13.05
2019-05-20T22:28:24.926Z,12.88
2019-05-20T22:30:53.567Z,12.03
2019-05-20T22:33:22.265Z,12.73
2019-05-20T22:35:50.895Z,11.83
2019-05-20T22:38:19.652Z,11.97
2019-05-20T22:40:48.267Z,12.68
2019-05-20T22:43:17.017Z,12.58
2019-05-20T22:45:45.886Z,10.80
2019-05-20T22:48:14.465Z,11.10
2019-05-20T22:50:43.375Z,10.00
2019-05-20T22:53:12.015Z,10.03
2019-05-20T22:55:41.056Z,10.60
2019-05-20T22:58:09.588Z,10.38
2019-05-20T23:00:38.212Z,11.18
2019-05-20T23:03:06.807Z,11.00
2019-05-20T23:05:35.382Z,11.00
2019-05-20T23:08:04.165Z,10.18
2019-05-20T23:10:32.856Z,10.03
2019-05-20T23:13:01.554Z,11.00
2019-05-20T23:15:30.289Z,10.85
2019-05-20T23:17:58.957Z,11.80
2019-05-20T23:20:27.887Z,12.20
2019-05-20T23:22:56.426Z,11.25
2019-05-20T23:25:25.108Z,12.15
2019-05-20T23:27:53.711Z,10.28
2019-05-20T23:30:22.418Z,9.60
2019-05-20T23:32:51.002Z,9.60
2019-05-20T23:35:19.848Z,9.10
2019-05-20T23:37:48.552Z,9.60
2019-05-20T23:40:17.258Z,8.83
2019-05-20T23:42:45.907Z,8.53
2019-05-20T23:45:14.845Z,7.87
2019-05-20T23:47:43.483Z,8.63
2019-05-20T23:50:12.244Z,7.78
2019-05-20T23:52:40.841Z,9.20
2019-05-20T23:55:10.395Z,7.85
2019-05-20T23:57:39.279Z,7.95
